createdAt,value
2019-05-09T00:00:04.354Z,81.35
2019-05-09T00:01:04.333Z,81.90
2019-05-09T00:02:04.318Z,82.61
2019-05-09T00:03:04.316Z,83.12
2019-05-09T00:04:04.304Z,83.12
2019-05-09T00:05:04.291Z,83.12
2019-05-09T00:06:04.707Z,83.73
2019-05-09T00:07:04.263Z,83.84
2019-05-09T00:08:04.267Z,83.98
2019-05-09T00:09:04.253Z,84.39
2019-05-09T00:10:04.282Z,83.87
2019-05-09T00:11:04.228Z,83.87
2019-05-09T00:12:04.231Z,83.78
2019-05-09T00:13:04.197Z,83.94
2019-05-09T00:14:04.686Z,83.98
2019-05-09T00:15:04.574Z,84.69
2019-05-09T00:16:04.165Z,83.78
2019-05-09T00:17:04.171Z,84.18
2019-05-09T00:18:04.169Z,84.08
2019-05-09T00:19:04.130Z,84.18
2019-05-09T00:20:04.133Z,83.78
2019-05-09T00:21:04.278Z,84.28
2019-05-09T00:22:04.097Z,83.87
2019-05-09T00:23:04.112Z,83.87
2019-05-09T00:24:04.110Z,83.98
2019-05-09T00:25:04.066Z,83.47
2019-05-09T00:26:04.313Z,83.47
2019-05-09T00:27:04.075Z,83.98
2019-05-09T00:28:04.259Z,83.87
2019-05-09T00:29:04.036Z,84.08
2019-05-09T00:30:04.058Z,84.08
2019-05-09T00:31:03.997Z,83.67
2019-05-09T00:32:03.998Z,82.96
2019-05-09T00:33:03.981Z,82.86
2019-05-09T00:34:04.300Z,83.16
2019-05-09T00:35:04.132Z,83.06
2019-05-09T00:36:04.401Z,82.51
2019-05-09T00:37:04.008Z,82.65
2019-05-09T00:38:04.432Z,82.41
2019-05-09T00:39:04.176Z,82.31
2019-05-09T00:40:04.136Z,82.82
2019-05-09T00:41:03.980Z,82.51
2019-05-09T00:42:04.502Z,82.86
2019-05-09T00:43:04.152Z,82.82
2019-05-09T00:44:03.850Z,82.41
2019-05-09T00:45:04.210Z,82.86
2019-05-09T00:46:04.428Z,82.86
2019-05-09T00:47:04.309Z,82.96
2019-05-09T00:48:03.809Z,83.47
2019-05-09T00:49:05.020Z,83.87
2019-05-09T00:50:05.181Z,82.75
2019-05-09T00:51:03.800Z,82.75
2019-05-09T00:52:03.779Z,82.86
2019-05-09T00:53:03.767Z,83.67
2019-05-09T00:54:04.272Z,83.98
2019-05-09T00:55:04.007Z,83.98
2019-05-09T00:56:04.394Z,83.98
2019-05-09T00:57:03.718Z,83.98
2019-05-09T00:58:04.318Z,83.26
2019-05-09T00:59:04.395Z,83.57
2019-05-09T01:00:04.084Z,83.06
2019-05-09T01:01:04.483Z,82.24
2019-05-09T03:16:49.346Z,82.73
2019-05-09T03:17:32.634Z,82.93
2019-05-09T03:18:32.624Z,83.34
2019-05-09T03:19:32.618Z,83.14
2019-05-09T03:20:32.607Z,83.65
2019-05-09T03:21:32.606Z,83.44
2019-05-09T03:22:32.605Z,83.44
2019-05-09T03:23:32.569Z,83.54
2019-05-09T03:24:32.559Z,83.85
2019-05-09T03:25:32.553Z,83.69
2019-05-09T03:26:32.544Z,83.54
2019-05-09T03:27:32.523Z,83.38
2019-05-09T03:28:32.516Z,84.09
2019-05-09T03:29:32.503Z,84.00
2019-05-09T03:30:32.497Z,83.54
2019-05-09T03:31:32.484Z,83.69
2019-05-09T03:32:32.528Z,83.89
2019-05-09T03:33:35.479Z,83.89
2019-05-09T03:34:32.444Z,84.30
2019-05-09T03:35:32.441Z,84.20
2019-05-09T03:36:32.421Z,83.79
2019-05-09T03:37:32.421Z,84.00
2019-05-09T03:38:32.455Z,84.09
2019-05-09T03:39:32.392Z,84.00
2019-05-09T03:40:32.382Z,84.41
2019-05-09T03:41:32.373Z,84.41
2019-05-09T03:42:41.127Z,83.89
2019-05-09T03:43:33.365Z,84.09
2019-05-09T03:44:32.340Z,84.00
2019-05-09T03:45:32.333Z,83.69
2019-05-09T03:46:32.310Z,83.69
2019-05-09T03:47:32.302Z,83.69
2019-05-09T03:48:32.328Z,83.48
2019-05-09T03:49:32.287Z,83.34
2019-05-09T03:50:32.274Z,83.24
2019-05-09T03:51:32.253Z,83.79
2019-05-09T03:52:32.249Z,83.65
2019-05-09T03:53:32.240Z,83.85
2019-05-09T03:54:32.233Z,83.75
2019-05-09T03:55:32.244Z,83.75
2019-05-09T03:56:32.206Z,83.75
2019-05-09T03:57:32.207Z,83.65
2019-05-09T03:58:32.197Z,83.75
2019-05-09T03:59:32.171Z,83.75
2019-05-09T04:00:32.173Z,83.75
2019-05-09T04:01:32.143Z,83.54
2019-05-09T04:02:32.146Z,83.34
2019-05-09T04:03:32.123Z,83.65
2019-05-09T04:04:32.114Z,83.65
2019-05-09T04:05:32.102Z,83.75
2019-05-09T04:06:32.107Z,83.65
2019-05-09T04:07:32.079Z,83.24
2019-05-09T04:08:32.067Z,83.14
2019-05-09T04:09:32.059Z,83.54
2019-05-09T04:10:32.046Z,83.44
2019-05-09T04:11:32.046Z,83.61
2019-05-09T04:12:32.025Z,83.34
2019-05-09T04:13:32.009Z,83.14
2019-05-09T04:14:32.024Z,82.93
2019-05-09T04:15:31.987Z,82.69
2019-05-09T04:16:31.983Z,83.00
2019-05-09T04:17:31.975Z,82.89
2019-05-09T04:18:31.975Z,83.14
2019-05-09T04:19:31.948Z,82.79
2019-05-09T04:20:31.953Z,82.89
2019-05-09T04:21:31.926Z,82.28
2019-05-09T04:22:31.920Z,82.24
2019-05-09T04:23:31.900Z,82.89
2019-05-09T04:24:31.888Z,81.94
2019-05-09T04:25:31.882Z,82.45
2019-05-09T04:26:31.866Z,82.04
2019-05-09T04:27:31.869Z,82.45
2019-05-09T04:28:31.855Z,81.32
2019-05-09T04:29:31.835Z,81.43
2019-05-09T04:30:31.820Z,81.43
2019-05-09T04:31:31.806Z,82.45
2019-05-09T04:32:31.811Z,82.35
2019-05-09T04:33:31.804Z,82.35
2019-05-09T04:34:31.784Z,82.14
2019-05-09T04:35:31.767Z,82.35
2019-05-09T04:36:31.750Z,82.04
2019-05-09T04:37:31.741Z,82.35
2019-05-09T04:38:31.745Z,81.94
2019-05-09T04:39:31.717Z,81.84
2019-05-09T04:40:32.207Z,82.55
2019-05-09T04:41:31.695Z,82.65
2019-05-09T04:42:35.125Z,82.55
2019-05-09T04:43:36.765Z,82.24
2019-05-09T04:44:31.677Z,82.35
2019-05-09T04:45:33.193Z,82.24
2019-05-09T04:46:32.637Z,82.45
2019-05-09T04:47:33.910Z,82.35
2019-05-09T04:48:32.632Z,82.18
2019-05-09T04:49:39.668Z,82.24
2019-05-09T04:50:32.597Z,82.59
2019-05-09T04:51:31.587Z,82.65
2019-05-09T04:52:31.572Z,82.65
2019-05-09T04:53:31.563Z,82.24
2019-05-09T04:54:31.574Z,82.35
2019-05-09T04:55:31.540Z,82.45
2019-05-09T04:56:31.530Z,82.55
2019-05-09T04:57:31.521Z,82.75
2019-05-09T04:58:31.512Z,82.65
2019-05-09T04:59:31.494Z,82.45
2019-05-09T05:00:31.495Z,82.45
2019-05-09T05:01:31.481Z,82.35
2019-05-09T05:02:31.470Z,82.21
2019-05-09T05:03:31.454Z,82.55
2019-05-09T05:04:31.485Z,82.21
2019-05-09T05:05:31.442Z,82.41
2019-05-09T05:06:31.422Z,82.04
2019-05-09T05:07:31.405Z,82.45
2019-05-09T05:08:31.397Z,81.39
2019-05-09T05:09:31.383Z,82.41
2019-05-09T05:10:31.389Z,82.31
2019-05-09T05:11:31.361Z,82.21
2019-05-09T05:12:31.348Z,82.10
2019-05-09T05:13:31.335Z,82.10
2019-05-09T05:14:31.331Z,82.21
2019-05-09T05:15:31.328Z,82.75
2019-05-09T05:16:31.314Z,82.41
2019-05-09T05:17:31.316Z,82.21
2019-05-09T05:18:31.300Z,81.94
2019-05-09T05:19:31.659Z,81.94
2019-05-09T05:20:31.281Z,81.84
2019-05-09T05:21:31.252Z,82.14
2019-05-09T05:22:31.258Z,82.31
2019-05-09T05:23:31.230Z,82.04
2019-05-09T05:24:31.217Z,82.41
2019-05-09T05:25:31.204Z,82.41
2019-05-09T05:26:31.200Z,82.00
2019-05-09T05:27:31.187Z,82.10
2019-05-09T05:28:31.184Z,82.51
2019-05-09T05:29:31.161Z,82.61
2019-05-09T05:30:31.144Z,82.10
2019-05-09T05:31:31.140Z,82.41
2019-05-09T05:32:31.130Z,82.21
2019-05-09T05:33:31.136Z,82.10
2019-05-09T05:34:31.118Z,81.49
2019-05-09T05:35:31.095Z,80.64
2019-05-09T05:36:31.077Z,80.84
2019-05-09T05:37:31.073Z,80.64
2019-05-09T05:38:31.065Z,80.23
2019-05-09T05:39:31.065Z,80.43
2019-05-09T05:40:33.523Z,80.43
2019-05-09T05:41:31.040Z,80.54
2019-05-09T05:42:31.016Z,80.23
2019-05-09T05:43:40.595Z,80.33
2019-05-09T05:44:32.022Z,79.52
2019-05-09T05:45:30.977Z,80.23
2019-05-09T05:46:30.979Z,79.00
2019-05-09T05:47:30.956Z,79.21
2019-05-09T05:48:30.947Z,78.66
2019-05-09T05:49:30.933Z,78.97
2019-05-09T05:50:30.938Z,78.97
2019-05-09T05:51:30.919Z,79.38
2019-05-09T05:52:30.908Z,78.36
2019-05-09T05:53:30.886Z,78.16
2019-05-09T05:54:30.876Z,78.12
2019-05-09T05:55:30.887Z,78.32
2019-05-09T05:56:30.880Z,78.12
2019-05-09T05:57:30.852Z,78.26
2019-05-09T05:58:30.844Z,78.46
2019-05-09T05:59:30.896Z,78.36
2019-05-09T06:00:30.811Z,78.16
2019-05-09T06:01:30.819Z,78.12
2019-05-09T06:02:30.791Z,78.56
2019-05-09T06:03:30.783Z,77.85
2019-05-09T06:04:30.768Z,77.64
2019-05-09T06:05:30.757Z,77.85
2019-05-09T06:06:33.046Z,77.51
2019-05-09T06:07:31.329Z,77.44
2019-05-09T06:08:30.965Z,77.64
2019-05-09T06:09:30.850Z,77.64
2019-05-09T06:10:30.703Z,77.55
2019-05-09T06:11:30.690Z,77.64
2019-05-09T06:12:30.691Z,77.64
2019-05-09T06:13:30.675Z,77.24
2019-05-09T06:14:30.666Z,77.24
2019-05-09T06:15:30.660Z,77.44
2019-05-09T06:16:30.644Z,77.55
2019-05-09T06:17:30.640Z,77.64
2019-05-09T06:18:30.631Z,77.75
2019-05-09T06:19:30.635Z,77.51
2019-05-09T06:20:30.595Z,76.79
2019-05-09T06:21:30.587Z,76.79
2019-05-09T06:22:30.628Z,76.90
2019-05-09T06:23:30.619Z,77.00
2019-05-09T06:24:30.577Z,76.35
2019-05-09T06:25:30.995Z,76.39
2019-05-09T06:26:30.541Z,76.15
2019-05-09T06:27:30.517Z,76.04
2019-05-09T06:28:30.514Z,76.45
2019-05-09T06:29:30.516Z,76.15
2019-05-09T06:30:30.489Z,75.95
2019-05-09T06:31:30.476Z,75.74
2019-05-09T06:32:30.483Z,75.60
2019-05-09T06:33:30.460Z,75.50
2019-05-09T06:34:30.458Z,75.60
2019-05-09T06:35:30.434Z,75.50
2019-05-09T06:36:30.438Z,75.40
2019-05-09T06:37:30.415Z,74.48
2019-05-09T06:38:30.397Z,74.89
2019-05-09T06:39:30.420Z,74.79
2019-05-09T06:40:30.392Z,74.82
2019-05-09T06:41:30.362Z,74.99
2019-05-09T06:42:30.356Z,74.99
2019-05-09T06:43:30.355Z,75.43
2019-05-09T06:44:30.336Z,74.79
2019-05-09T06:45:30.344Z,74.99
2019-05-09T06:46:30.325Z,74.72
2019-05-09T06:47:30.306Z,74.72
2019-05-09T06:48:30.296Z,74.72
2019-05-09T06:49:31.931Z,74.93
2019-05-09T06:50:30.274Z,74.52
2019-05-09T06:51:30.264Z,74.52
2019-05-09T06:52:30.253Z,74.62
2019-05-09T06:53:30.231Z,74.41
2019-05-09T06:54:30.244Z,74.72
2019-05-09T06:55:30.231Z,74.62
2019-05-09T06:56:30.232Z,74.21
2019-05-09T06:57:30.193Z,74.52
2019-05-09T06:58:30.184Z,74.11
2019-05-09T06:59:30.264Z,74.11
2019-05-09T07:00:30.173Z,74.52
2019-05-09T07:01:30.147Z,74.79
2019-05-09T07:02:30.143Z,74.72
2019-05-09T07:03:30.121Z,74.28
2019-05-09T07:04:30.112Z,74.48
2019-05-09T07:05:30.103Z,74.35
2019-05-09T07:06:30.104Z,74.04
2019-05-09T07:07:30.091Z,72.58
2019-05-09T07:08:31.440Z,71.77
2019-05-09T07:09:30.069Z,71.73
2019-05-09T07:10:30.043Z,71.53
2019-05-09T07:11:30.037Z,71.53
2019-05-09T07:12:30.034Z,71.53
2019-05-09T07:13:30.010Z,70.01
2019-05-09T07:14:33.197Z,70.72
2019-05-09T07:15:29.987Z,70.31
2019-05-09T07:16:29.982Z,70.62
2019-05-09T07:17:31.807Z,70.21
2019-05-09T07:18:29.959Z,70.42
2019-05-09T07:19:29.939Z,70.82
2019-05-09T07:20:29.939Z,70.62
2019-05-09T07:21:29.939Z,70.62
2019-05-09T07:22:29.909Z,70.72
2019-05-09T07:23:29.892Z,70.82
2019-05-09T07:24:29.888Z,70.62
2019-05-09T07:25:29.885Z,70.72
2019-05-09T07:26:29.875Z,71.12
2019-05-09T07:27:29.868Z,71.06
2019-05-09T07:28:29.854Z,70.86
2019-05-09T07:29:29.827Z,72.04
2019-05-09T07:30:29.818Z,70.31
2019-05-09T07:31:29.840Z,70.52
2019-05-09T07:32:29.796Z,70.42
2019-05-09T07:33:29.786Z,70.11
2019-05-09T07:34:29.798Z,70.01
2019-05-09T07:35:29.771Z,70.38
2019-05-09T07:36:29.749Z,70.18
2019-05-09T07:37:29.736Z,70.18
2019-05-09T07:38:29.725Z,70.21
2019-05-09T07:39:29.723Z,69.37
2019-05-09T07:40:30.687Z,70.18
2019-05-09T07:41:29.692Z,69.47
2019-05-09T07:42:29.687Z,69.57
2019-05-09T07:43:29.670Z,69.37
2019-05-09T07:44:45.042Z,68.99
2019-05-09T07:45:30.639Z,69.57
2019-05-09T07:46:29.642Z,69.57
2019-05-09T07:47:29.616Z,69.06
2019-05-09T07:48:29.614Z,70.08
2019-05-09T07:49:29.594Z,70.28
2019-05-09T07:50:29.588Z,69.95
2019-05-09T07:51:29.583Z,69.13
2019-05-09T07:52:29.581Z,69.43
2019-05-09T07:53:29.566Z,69.64
2019-05-09T07:54:29.581Z,69.30
2019-05-09T07:55:29.541Z,68.59
2019-05-09T07:56:29.549Z,68.90
2019-05-09T07:57:29.519Z,68.79
2019-05-09T07:58:29.511Z,68.90
2019-05-09T07:59:29.489Z,68.87
2019-05-09T08:00:29.481Z,68.46
2019-05-09T08:01:29.494Z,69.07
2019-05-09T08:02:29.457Z,67.65
2019-05-09T08:03:29.450Z,68.19
2019-05-09T08:04:29.455Z,67.34
2019-05-09T08:05:29.426Z,68.26
2019-05-09T08:06:29.416Z,67.95
2019-05-09T08:07:29.397Z,67.44
2019-05-09T08:08:29.394Z,68.26
2019-05-09T08:09:29.382Z,67.88
2019-05-09T08:10:32.902Z,67.78
2019-05-09T08:11:32.197Z,68.08
2019-05-09T08:12:29.343Z,67.27
2019-05-09T08:13:29.333Z,67.98
2019-05-09T08:14:29.321Z,68.29
2019-05-09T08:15:29.310Z,68.70
2019-05-09T08:16:29.303Z,69.07
2019-05-09T08:17:29.282Z,68.19
2019-05-09T08:18:29.273Z,68.05
2019-05-09T08:19:29.265Z,66.97
2019-05-09T08:20:29.278Z,66.97
2019-05-09T08:21:29.257Z,66.36
2019-05-09T08:22:32.435Z,66.86
2019-05-09T08:23:29.216Z,66.77
2019-05-09T08:24:29.232Z,67.07
2019-05-09T08:25:29.198Z,66.86
2019-05-09T08:26:30.127Z,66.26
2019-05-09T08:27:30.389Z,66.13
2019-05-09T08:28:29.164Z,66.63
2019-05-09T08:29:29.153Z,66.33
2019-05-09T08:30:35.807Z,66.74
2019-05-09T08:31:30.133Z,66.53
2019-05-09T08:32:29.139Z,66.77
2019-05-09T08:33:29.135Z,66.63
2019-05-09T08:34:29.102Z,66.97
2019-05-09T08:35:29.120Z,67.03
2019-05-09T08:36:29.096Z,66.94
2019-05-09T08:37:29.064Z,66.33
2019-05-09T08:38:29.058Z,66.86
2019-05-09T08:39:29.082Z,66.97
2019-05-09T08:40:29.032Z,67.27
2019-05-09T08:41:29.427Z,67.17
2019-05-09T08:42:29.393Z,66.46
2019-05-09T08:43:29.022Z,66.43
2019-05-09T08:44:31.159Z,66.77
2019-05-09T08:45:31.512Z,66.83
2019-05-09T08:46:28.971Z,66.33
2019-05-09T08:47:28.949Z,66.74
2019-05-09T08:48:28.946Z,66.80
2019-05-09T08:49:28.938Z,66.30
2019-05-09T08:50:28.929Z,65.96
2019-05-09T08:51:36.658Z,65.66
2019-05-09T08:52:29.891Z,65.05
2019-05-09T08:53:28.886Z,64.64
2019-05-09T08:54:28.870Z,65.15
2019-05-09T08:55:28.863Z,64.75
2019-05-09T08:56:28.874Z,64.44
2019-05-09T08:57:29.054Z,65.25
2019-05-09T08:58:28.888Z,65.45
2019-05-09T08:59:28.814Z,65.66
2019-05-09T09:00:28.804Z,65.36
2019-05-09T09:01:47.754Z,65.66
2019-05-09T09:02:29.783Z,64.85
2019-05-09T09:03:28.772Z,65.36
2019-05-09T09:04:29.509Z,64.64
2019-05-09T09:05:29.002Z,64.24
2019-05-09T09:06:28.743Z,64.75
2019-05-09T09:07:29.745Z,64.85
2019-05-09T09:08:28.723Z,65.36
2019-05-09T09:09:28.750Z,65.02
2019-05-09T09:10:29.287Z,64.21
2019-05-09T09:11:28.684Z,64.21
2019-05-09T09:12:34.224Z,63.57
2019-05-09T09:13:29.669Z,63.17
2019-05-09T09:14:28.652Z,62.96
2019-05-09T09:15:55.677Z,62.63
2019-05-09T09:16:29.630Z,61.82
2019-05-09T09:17:28.621Z,62.40
2019-05-09T09:18:28.637Z,61.11
2019-05-09T09:19:28.618Z,61.92
2019-05-09T09:20:29.024Z,61.75
2019-05-09T09:21:28.768Z,62.46
2019-05-09T09:22:28.603Z,63.09
2019-05-09T09:23:42.826Z,63.02
2019-05-09T09:24:29.550Z,64.07
2019-05-09T09:25:28.837Z,65.59
2019-05-09T09:26:28.525Z,65.69
2019-05-09T09:27:28.503Z,65.59
2019-05-09T09:28:28.491Z,66.02
2019-05-09T09:29:28.542Z,65.89
2019-05-09T09:30:29.484Z,65.42
2019-05-09T09:31:28.676Z,66.30
2019-05-09T09:32:28.473Z,66.80
2019-05-09T09:33:28.440Z,65.89
2019-05-09T09:34:30.078Z,65.48
2019-05-09T09:35:28.418Z,65.48
2019-05-09T09:36:28.446Z,65.56
2019-05-09T09:37:44.720Z,64.95
2019-05-09T09:38:29.378Z,65.25
2019-05-09T09:39:31.152Z,65.32
2019-05-09T09:40:28.385Z,64.92
2019-05-09T09:41:28.819Z,63.90
2019-05-09T09:42:28.491Z,63.67
2019-05-09T09:43:28.326Z,63.67
2019-05-09T09:44:28.837Z,63.07
2019-05-09T09:45:28.376Z,63.37
2019-05-09T09:46:28.661Z,62.35
2019-05-09T09:47:28.712Z,63.37
2019-05-09T09:48:28.547Z,63.78
2019-05-09T09:49:29.266Z,63.44
2019-05-09T09:50:28.267Z,63.75
2019-05-09T09:51:28.249Z,63.10
2019-05-09T09:52:29.311Z,63.10
2019-05-09T09:53:28.213Z,62.67
2019-05-09T09:54:28.334Z,62.27
2019-05-09T09:55:28.192Z,61.05
2019-05-09T09:56:28.514Z,60.93
2019-05-09T09:57:28.859Z,60.65
2019-05-09T09:58:28.171Z,60.65
2019-05-09T09:59:28.352Z,60.12
2019-05-09T10:00:28.140Z,60.72
2019-05-09T10:01:28.847Z,60.36
2019-05-09T10:02:28.154Z,59.76
2019-05-09T10:03:28.102Z,59.02
2019-05-09T10:04:28.459Z,58.54
2019-05-09T10:05:28.093Z,58.32
2019-05-09T10:06:28.538Z,58.34
2019-05-09T10:07:28.069Z,57.64
2019-05-09T10:08:28.063Z,57.64
2019-05-09T10:09:28.036Z,57.91
2019-05-09T10:10:28.672Z,58.62
2019-05-09T10:11:28.614Z,56.70
2019-05-09T10:12:29.111Z,56.88
2019-05-09T10:13:28.683Z,55.57
2019-05-09T10:14:28.439Z,56.27
2019-05-09T10:15:28.204Z,55.26
2019-05-09T10:16:31.881Z,55.16
2019-05-09T10:17:28.216Z,55.66
2019-05-09T10:18:27.941Z,55.77
2019-05-09T10:19:27.931Z,56.17
2019-05-09T10:20:29.141Z,56.20
2019-05-09T10:21:27.935Z,56.81
2019-05-09T10:22:27.916Z,57.01
2019-05-09T10:23:27.893Z,56.32
2019-05-09T10:24:28.160Z,57.14
2019-05-09T10:25:27.862Z,57.46
2019-05-09T10:26:28.463Z,57.76
2019-05-09T10:27:28.482Z,58.70
2019-05-09T10:28:30.094Z,59.23
2019-05-09T10:29:27.966Z,58.65
2019-05-09T10:30:28.530Z,58.69
2019-05-09T10:31:28.372Z,58.89
2019-05-09T10:32:28.871Z,59.72
2019-05-09T10:33:28.079Z,60.03
2019-05-09T10:34:28.773Z,59.83
2019-05-09T10:35:27.981Z,60.33
2019-05-09T10:36:28.031Z,60.23
2019-05-09T10:37:27.731Z,60.66
2019-05-09T10:38:28.067Z,61.24
2019-05-09T10:39:27.782Z,60.94
2019-05-09T10:40:28.196Z,60.71
2019-05-09T10:41:27.684Z,60.50
2019-05-09T10:42:28.606Z,59.49
2019-05-09T10:43:35.901Z,60.07
2019-05-09T10:44:28.650Z,58.33
2019-05-09T10:45:27.658Z,58.53
2019-05-09T10:46:33.627Z,58.53
2019-05-09T10:47:28.608Z,58.70
2019-05-09T10:48:28.287Z,58.27
2019-05-09T10:49:27.594Z,58.14
2019-05-09T10:50:34.166Z,57.43
2019-05-09T10:51:28.584Z,55.29
2019-05-09T10:52:28.375Z,55.57
2019-05-09T10:53:28.412Z,54.94
2019-05-09T10:54:27.940Z,54.94
2019-05-09T10:55:28.390Z,54.61
2019-05-09T10:56:28.178Z,54.00
2019-05-09T10:57:31.563Z,53.50
2019-05-09T10:58:28.490Z,52.80
2019-05-09T10:59:27.487Z,53.90
2019-05-09T11:00:28.881Z,54.81
2019-05-09T11:01:29.416Z,55.11
2019-05-09T11:02:28.046Z,54.10
2019-05-09T11:03:27.432Z,55.01
2019-05-09T11:04:28.800Z,54.21
2019-05-09T11:05:27.820Z,52.39
2019-05-09T11:06:28.686Z,52.19
2019-05-09T11:07:28.987Z,53.20
2019-05-09T11:08:28.599Z,53.50
2019-05-09T11:09:29.084Z,53.30
2019-05-09T11:10:31.811Z,54.00
2019-05-09T11:11:28.833Z,53.40
2019-05-09T11:12:27.722Z,53.90
2019-05-09T11:13:28.738Z,53.63
2019-05-09T11:14:33.553Z,53.32
2019-05-09T11:15:28.365Z,55.06
2019-05-09T11:16:39.597Z,54.79
2019-05-09T11:17:28.715Z,55.79
2019-05-09T11:18:28.654Z,56.15
2019-05-09T11:19:28.831Z,57.26
2019-05-09T11:20:28.375Z,57.39
2019-05-09T11:21:28.543Z,57.31
2019-05-09T11:22:29.151Z,58.36
2019-05-09T11:23:29.178Z,58.58
2019-05-09T11:24:41.682Z,59.19
2019-05-09T11:25:28.186Z,59.92
2019-05-09T11:26:28.474Z,59.83
2019-05-09T11:27:28.891Z,61.04
2019-05-09T11:28:28.562Z,60.13
2019-05-09T11:29:28.095Z,60.13
2019-05-09T11:30:28.253Z,60.33
2019-05-09T11:31:29.463Z,60.74
2019-05-09T11:32:27.879Z,61.04
2019-05-09T11:33:27.826Z,60.33
2019-05-09T11:34:27.101Z,60.41
2019-05-09T11:35:27.119Z,61.11
2019-05-09T11:36:27.069Z,58.86
2019-05-09T11:37:27.061Z,59.27
2019-05-09T11:38:35.152Z,60.07
2019-05-09T11:39:36.542Z,60.58
2019-05-09T11:40:28.277Z,61.21
2019-05-09T11:41:29.363Z,61.82
2019-05-09T11:42:28.504Z,62.96
2019-05-09T11:43:29.704Z,63.17
2019-05-09T11:44:27.334Z,63.07
2019-05-09T11:45:28.091Z,62.99
2019-05-09T11:46:28.823Z,63.81
2019-05-09T11:47:33.639Z,61.85
2019-05-09T11:48:28.450Z,62.05
2019-05-09T11:49:29.440Z,60.84
2019-05-09T11:50:26.916Z,59.80
2019-05-09T11:51:29.100Z,60.27
2019-05-09T11:52:28.827Z,60.58
2019-05-09T11:53:28.798Z,59.71
2019-05-09T11:54:27.888Z,59.78
2019-05-09T11:55:35.034Z,58.37
2019-05-09T11:56:27.839Z,58.07
2019-05-09T11:57:28.683Z,58.58
2019-05-09T11:58:27.996Z,58.60
2019-05-09T11:59:28.089Z,58.80
2019-05-09T12:00:29.218Z,59.94
2019-05-09T12:01:29.268Z,59.97
2019-05-09T12:02:27.972Z,60.41
2019-05-09T12:03:26.771Z,61.44
2019-05-09T12:04:28.151Z,62.66
2019-05-09T12:05:28.795Z,61.95
2019-05-09T12:06:28.977Z,62.33
2019-05-09T12:07:28.801Z,61.56
2019-05-09T12:08:26.712Z,60.29
2019-05-09T12:09:28.880Z,59.05
2019-05-09T12:10:28.598Z,59.22
2019-05-09T12:11:26.673Z,57.98
2019-05-09T12:12:28.301Z,56.65
2019-05-09T12:13:26.658Z,56.62
2019-05-09T12:14:27.609Z,55.16
2019-05-09T12:15:29.077Z,53.85
2019-05-09T12:16:27.999Z,53.80
2019-05-09T12:17:31.210Z,54.08
2019-05-09T12:18:28.606Z,53.62
2019-05-09T12:19:29.405Z,51.87
2019-05-09T12:20:27.727Z,52.64
2019-05-09T12:21:28.213Z,49.84
2019-05-09T12:22:28.031Z,50.42
2019-05-09T12:23:28.971Z,50.51
2019-05-09T12:24:26.530Z,49.49
2019-05-09T12:25:28.302Z,47.99
2019-05-09T12:26:29.227Z,49.39
2019-05-09T12:27:28.081Z,48.71
2019-05-09T12:28:26.496Z,47.23
2019-05-09T12:29:28.599Z,49.54
2019-05-09T12:30:28.480Z,48.51
2019-05-09T12:31:28.541Z,48.28
2019-05-09T12:32:28.525Z,46.78
2019-05-09T12:33:28.471Z,47.58
2019-05-09T12:34:27.698Z,47.19
2019-05-09T12:35:26.417Z,48.21
2019-05-09T12:36:28.596Z,48.93
2019-05-09T12:37:28.127Z,47.63
2019-05-09T12:38:27.720Z,47.65
2019-05-09T12:39:27.487Z,49.08
2019-05-09T12:40:26.393Z,51.11
2019-05-09T12:41:30.933Z,49.43
2019-05-09T12:42:28.913Z,49.57
2019-05-09T12:43:28.314Z,50.10
2019-05-09T12:44:28.716Z,50.02
2019-05-09T12:45:26.313Z,51.06
2019-05-09T12:46:28.382Z,52.26
2019-05-09T12:47:29.072Z,52.26
2019-05-09T12:48:27.887Z,52.54
2019-05-09T12:49:28.285Z,52.14
2019-05-09T12:50:28.392Z,52.11
2019-05-09T12:51:28.228Z,51.59
2019-05-09T12:52:28.612Z,50.05
2019-05-09T12:53:27.956Z,47.88
2019-05-09T12:54:27.935Z,47.35
2019-05-09T12:55:27.593Z,46.78
2019-05-09T12:56:28.376Z,46.06
2019-05-09T12:57:28.716Z,45.76
2019-05-09T12:58:27.659Z,44.26
2019-05-09T12:59:28.526Z,44.62
2019-05-09T13:00:28.386Z,45.14
2019-05-09T13:01:26.131Z,43.90
2019-05-09T13:02:27.883Z,43.13
2019-05-09T13:03:27.619Z,42.11
2019-05-09T13:04:28.124Z,41.80
2019-05-09T13:05:27.363Z,42.32
2019-05-09T13:06:28.941Z,42.87
2019-05-09T13:07:29.475Z,44.04
2019-05-09T13:08:27.819Z,45.68
2019-05-09T13:09:28.440Z,47.20
2019-05-09T13:10:28.236Z,47.83
2019-05-09T13:11:27.930Z,47.77
2019-05-09T13:12:28.937Z,49.91
2019-05-09T13:13:28.303Z,49.76
2019-05-09T13:14:28.391Z,48.69
2019-05-09T13:15:30.579Z,50.15
2019-05-09T13:16:43.494Z,51.59
2019-05-09T13:17:27.316Z,54.13
2019-05-09T13:18:29.514Z,53.55
2019-05-09T13:19:27.868Z,53.96
2019-05-09T13:20:28.437Z,55.09
2019-05-09T13:21:29.737Z,55.79
2019-05-09T13:22:28.428Z,55.49
2019-05-09T13:23:28.696Z,54.99
2019-05-09T13:24:28.224Z,54.41
2019-05-09T13:25:25.869Z,54.91
2019-05-09T13:26:28.526Z,55.52
2019-05-09T13:27:28.451Z,55.24
2019-05-09T13:28:25.852Z,55.34
2019-05-09T13:29:25.835Z,55.82
2019-05-09T13:30:28.282Z,56.05
2019-05-09T13:31:29.077Z,55.85
2019-05-09T13:32:28.037Z,55.44
2019-05-09T13:33:25.784Z,56.07
2019-05-09T13:34:28.218Z,55.67
2019-05-09T13:35:27.834Z,56.18
2019-05-09T13:36:28.105Z,56.38
2019-05-09T13:37:29.379Z,57.31
2019-05-09T13:38:27.646Z,57.59
2019-05-09T13:39:27.845Z,58.09
2019-05-09T13:40:29.042Z,58.60
2019-05-09T13:41:25.692Z,57.49
2019-05-09T13:42:28.246Z,57.18
2019-05-09T13:43:28.085Z,57.49
2019-05-09T13:44:27.687Z,55.85
2019-05-09T13:45:25.643Z,55.14
2019-05-09T13:46:28.016Z,55.54
2019-05-09T13:47:27.850Z,54.71
2019-05-09T13:48:37.850Z,55.21
2019-05-09T13:49:28.618Z,53.98
2019-05-09T13:50:25.589Z,53.09
2019-05-09T13:51:25.585Z,52.14
2019-05-09T13:52:27.386Z,51.81
2019-05-09T13:53:25.551Z,51.46
2019-05-09T13:54:28.321Z,50.21
2019-05-09T13:55:27.515Z,50.06
2019-05-09T13:56:27.806Z,48.49
2019-05-09T13:57:27.572Z,46.69
2019-05-09T13:58:25.521Z,43.65
2019-05-09T13:59:25.489Z,43.57
2019-05-09T14:00:25.491Z,43.79
2019-05-09T14:01:25.467Z,43.74
2019-05-09T14:02:25.455Z,43.85
2019-05-09T14:03:28.007Z,45.22
2019-05-09T14:04:28.426Z,45.77
2019-05-09T14:05:25.425Z,47.62
2019-05-09T14:06:27.550Z,49.85
2019-05-09T14:07:27.766Z,48.09
2019-05-09T14:08:27.972Z,49.52
2019-05-09T14:09:25.401Z,50.43
2019-05-09T14:10:25.398Z,50.33
2019-05-09T14:11:25.358Z,51.73
2019-05-09T14:12:25.348Z,49.44
2019-05-09T14:13:27.534Z,49.95
2019-05-09T14:14:27.911Z,51.97
2019-05-09T14:15:27.393Z,51.73
2019-05-09T14:16:25.311Z,51.31
2019-05-09T14:17:41.801Z,49.77
2019-05-09T14:18:26.287Z,49.60
2019-05-09T14:19:38.578Z,47.56
2019-05-09T14:20:27.556Z,48.67
2019-05-09T14:21:25.257Z,49.98
2019-05-09T14:22:25.251Z,50.08
2019-05-09T14:23:35.054Z,47.36
2019-05-09T14:24:27.882Z,47.66
2019-05-09T14:25:25.213Z,49.60
2019-05-09T14:26:25.199Z,47.46
2019-05-09T14:27:25.189Z,47.86
2019-05-09T14:28:26.594Z,48.95
2019-05-09T14:29:25.167Z,48.95
2019-05-09T14:30:27.406Z,48.30
2019-05-09T14:31:28.967Z,46.50
2019-05-09T14:32:26.820Z,44.64
2019-05-09T14:33:25.127Z,43.19
2019-05-09T14:34:25.106Z,41.97
2019-05-09T14:35:25.093Z,42.27
2019-05-09T14:36:27.561Z,42.57
2019-05-09T14:37:25.104Z,42.57
2019-05-09T14:38:25.061Z,42.47
2019-05-09T14:39:27.567Z,42.10
2019-05-09T14:40:25.041Z,43.62
2019-05-09T14:41:27.538Z,45.14
2019-05-09T14:42:25.013Z,46.88
2019-05-09T14:43:25.030Z,47.23
2019-05-09T14:44:27.614Z,48.05
2019-05-09T14:45:24.983Z,47.47
2019-05-09T14:46:24.983Z,49.21
2019-05-09T14:47:27.690Z,48.75
2019-05-09T14:48:25.054Z,49.98
2019-05-09T14:49:39.435Z,49.77
2019-05-09T14:50:28.331Z,49.10
2019-05-09T14:51:24.911Z,49.52
2019-05-09T14:52:24.995Z,50.53
2019-05-09T14:53:24.920Z,51.56
2019-05-09T14:54:24.890Z,51.97
2019-05-09T14:55:24.867Z,52.57
2019-05-09T14:56:24.889Z,51.76
2019-05-09T14:57:24.845Z,51.23
2019-05-09T14:58:24.876Z,51.23
2019-05-09T14:59:24.835Z,49.93
2019-05-09T15:00:24.875Z,49.85
2019-05-09T15:01:24.821Z,49.82
2019-05-09T15:02:24.793Z,50.02
2019-05-09T15:03:24.778Z,51.93
2019-05-09T15:04:24.769Z,50.53
2019-05-09T15:05:24.775Z,50.10
2019-05-09T15:06:24.748Z,49.80